Terminal Aerodrome Forecast
Issued by NWS

Current Version | Previous Version | Text Only | Print | Product List | Glossary Off
Versions: 1 2 3 4 5 6 7 8 9 10 11 12 13 14 15 16 17 18 19 20 21 22 23 24 25 26 27 28 29 30 31 32 33 34 35 36 37 38 39 40 41 42 43 44 45 46 47 48 49 50

000
FTUS41 KRNK 051140
TAFLWB
TAF
KLWB 051140Z 0512/0612 01003KT 3SM -RAPL OVC006
     FM051400 32006KT 1SM -SN BR OVC004
     FM051600 33007KT 2SM -SN BR OVC008
     FM052300 33006KT 5SM BR OVC015
     FM060100 32005KT P6SM BKN040=

USA.gov is the U.S. government's official web portal to all federal, state and local government web resources and services.